Time;durP1;ratioP1;P1;durP2;ratioP2;P2;SDS_P1;SDS_P2;PMS_P1;PMS_P2;Temp;Humidity;BMP_temperature;BMP_pressure;BME280_temperature;BME280_humidity;BME280_pressure;Samples;Min_cycle;Max_cycle;Signal;HPM_P1;HPM_P2
2023/07/17 00:01:36;;;;;;;0.00;0.00;;;;;;;;;;5086938;28;20245;-78
2023/07/17 00:04:04;;;;;;;0.00;0.00;;;;;;;;;;5091344;28;20231;-78
2023/07/17 00:06:30;;;;;;;0.08;0.08;;;;;;;;;;5086924;28;20239;-78
2023/07/17 00:08:58;;;;;;;0.10;0.10;;;;;;;;;;5091186;28;20233;-79
2023/07/17 00:11:24;;;;;;;0.03;0.03;;;;;;;;;;5086117;28;20265;-78
2023/07/17 00:13:50;;;;;;;0.00;0.00;;;;;;;;;;5092136;28;20292;-79
2023/07/17 00:16:17;;;;;;;0.08;0.08;;;;;;;;;;5084959;28;20239;-78
2023/07/17 00:18:43;;;;;;;0.05;0.05;;;;;;;;;;5092850;28;20231;-79
2023/07/17 00:21:10;;;;;;;0.00;0.00;;;;;;;;;;5083940;28;20249;-78
2023/07/17 00:23:36;;;;;;;0.10;0.10;;;;;;;;;;5093740;28;20249;-78
2023/07/17 00:26:05;;;;;;;0.00;0.00;;;;;;;;;;5083000;28;20305;-78
2023/07/17 00:28:32;;;;;;;0.00;0.00;;;;;;;;;;5093733;28;20546;-78
2023/07/17 00:30:59;;;;;;;0.00;0.00;;;;;;;;;;5082376;28;20289;-78
2023/07/17 00:33:25;;;;;;;0.00;0.00;;;;;;;;;;5094709;28;20213;-77
2023/07/17 00:35:51;;;;;;;0.00;0.00;;;;;;;;;;5081487;28;20522;-78
2023/07/17 00:38:18;;;;;;;0.10;0.10;;;;;;;;;;5095830;28;20459;-78
2023/07/17 00:40:44;;;;;;;0.00;0.00;;;;;;;;;;5080396;28;20497;-78
2023/07/17 00:43:12;;;;;;;0.00;0.00;;;;;;;;;;5096507;28;20235;-79
2023/07/17 00:45:40;;;;;;;0.05;0.05;;;;;;;;;;5079540;28;20301;-78
2023/07/17 00:48:07;;;;;;;0.10;0.10;;;;;;;;;;5096934;28;20247;-78
2023/07/17 00:50:34;;;;;;;0.10;0.10;;;;;;;;;;5078793;28;20246;-78
2023/07/17 00:53:00;;;;;;;0.00;0.00;;;;;;;;;;5097799;28;20452;-78
2023/07/17 00:55:27;;;;;;;0.10;0.10;;;;;;;;;;5077815;28;20451;-78
2023/07/17 00:57:53;;;;;;;0.10;0.10;;;;;;;;;;5098577;28;20448;-78
2023/07/17 01:00:22;;;;;;;0.10;0.10;;;;;;;;;;5076773;28;20467;-78
2023/07/17 01:02:49;;;;;;;0.00;0.00;;;;;;;;;;5099274;28;20238;-78
2023/07/17 01:05:15;;;;;;;0.00;0.00;;;;;;;;;;5076253;28;20274;-78
2023/07/17 01:07:41;;;;;;;0.00;0.00;;;;;;;;;;5100038;28;20473;-79
2023/07/17 01:10:08;;;;;;;0.10;0.10;;;;;;;;;;5079411;28;20527;-78
2023/07/17 01:12:35;;;;;;;0.00;0.00;;;;;;;;;;5100870;28;20455;-79
2023/07/17 01:15:02;;;;;;;0.00;0.00;;;;;;;;;;5085161;28;20278;-80
2023/07/17 01:17:29;;;;;;;0.00;0.00;;;;;;;;;;5090397;28;20270;-78
2023/07/17 01:19:56;;;;;;;0.10;0.10;;;;;;;;;;5085008;28;20273;-78
2023/07/17 01:22:23;;;;;;;0.00;0.00;;;;;;;;;;5090355;28;20309;-79
2023/07/17 01:24:51;;;;;;;0.00;0.00;;;;;;;;;;5085084;28;20230;-78
2023/07/17 01:27:17;;;;;;;0.10;0.10;;;;;;;;;;5090325;28;20487;-78
2023/07/17 01:29:43;;;;;;;0.10;0.10;;;;;;;;;;5084895;28;20470;-79
2023/07/17 01:32:10;;;;;;;0.00;0.00;;;;;;;;;;5090203;28;20461;-78
2023/07/17 01:34:37;;;;;;;0.00;0.00;;;;;;;;;;5084780;28;20277;-78
2023/07/17 01:37:03;;;;;;;0.00;0.00;;;;;;;;;;5089469;28;20615;-78
2023/07/17 01:39:30;;;;;;;0.00;0.00;;;;;;;;;;5084602;28;20246;-78
2023/07/17 01:41:57;;;;;;;0.00;0.00;;;;;;;;;;5087915;28;20283;-79
2023/07/17 01:44:27;;;;;;;0.45;0.45;;;;;;;;;;5085996;28;20547;-78
2023/07/17 01:46:54;;;;;;;0.00;0.00;;;;;;;;;;5087992;28;20246;-79
2023/07/17 01:49:20;;;;;;;0.00;0.00;;;;;;;;;;5086190;28;20301;-78
2023/07/17 01:51:46;;;;;;;0.00;0.00;;;;;;;;;;5087070;28;20258;-79
2023/07/17 01:54:13;;;;;;;0.10;0.10;;;;;;;;;;5087192;28;20386;-78
2023/07/17 01:56:39;;;;;;;0.00;0.00;;;;;;;;;;5085894;28;20242;-78
2023/07/17 01:59:07;;;;;;;0.10;0.10;;;;;;;;;;5087620;28;20238;-78
2023/07/17 02:01:33;;;;;;;0.10;0.10;;;;;;;;;;5084884;28;20243;-78
2023/07/17 02:04:00;;;;;;;0.10;0.10;;;;;;;;;;5088602;28;20209;-78
2023/07/17 02:06:26;;;;;;;0.00;0.00;;;;;;;;;;5084156;28;20301;-78
2023/07/17 02:08:52;;;;;;;0.10;0.10;;;;;;;;;;5089544;28;20237;-79
2023/07/17 02:11:19;;;;;;;0.00;0.00;;;;;;;;;;5083233;28;20242;-79
2023/07/17 02:13:45;;;;;;;0.00;0.00;;;;;;;;;;5090555;28;20426;-79
2023/07/17 02:16:13;;;;;;;0.10;0.10;;;;;;;;;;5082158;28;20260;-79
2023/07/17 02:18:39;;;;;;;0.00;0.00;;;;;;;;;;5091017;28;20202;-78
2023/07/17 02:21:06;;;;;;;0.00;0.00;;;;;;;;;;5081283;28;20310;-78
2023/07/17 02:23:32;;;;;;;0.00;0.00;;;;;;;;;;5091859;28;20238;-79
2023/07/17 02:25:58;;;;;;;0.00;0.00;;;;;;;;;;5080139;28;20699;-78
2023/07/17 02:28:25;;;;;;;0.05;0.05;;;;;;;;;;5092584;28;20237;-79
2023/07/17 02:30:51;;;;;;;0.00;0.00;;;;;;;;;;5079399;28;20257;-78
2023/07/17 02:33:19;;;;;;;0.05;0.05;;;;;;;;;;5093862;28;20524;-78
2023/07/17 02:35:45;;;;;;;0.10;0.10;;;;;;;;;;5078525;28;20245;-78
2023/07/17 02:38:12;;;;;;;0.00;0.00;;;;;;;;;;5094260;28;20256;-78
2023/07/17 02:40:38;;;;;;;0.00;0.00;;;;;;;;;;5077186;28;20309;-78
2023/07/17 02:43:07;;;;;;;0.10;0.10;;;;;;;;;;5095273;28;20277;-78
2023/07/17 02:45:33;;;;;;;0.00;0.00;;;;;;;;;;5076864;28;20353;-78
2023/07/17 02:48:00;;;;;;;0.47;0.47;;;;;;;;;;5095639;28;20205;-78
2023/07/17 02:50:28;;;;;;;0.00;0.00;;;;;;;;;;5075815;28;20273;-78
2023/07/17 02:52:54;;;;;;;0.10;0.10;;;;;;;;;;5096228;28;20265;-78
2023/07/17 02:55:20;;;;;;;0.00;0.00;;;;;;;;;;5075111;28;20274;-77
2023/07/17 02:57:47;;;;;;;0.00;0.00;;;;;;;;;;5097629;28;20222;-78
2023/07/17 03:00:14;;;;;;;0.00;0.00;;;;;;;;;;5073954;28;20469;-77
2023/07/17 03:02:42;;;;;;;0.00;0.00;;;;;;;;;;5098045;28;20219;-79
2023/07/17 03:05:09;;;;;;;0.00;0.00;;;;;;;;;;5074445;28;20205;-79
2023/07/17 03:07:37;;;;;;;0.00;0.00;;;;;;;;;;5098899;28;20410;-79
2023/07/17 03:10:04;;;;;;;0.10;0.10;;;;;;;;;;5083533;28;20234;-80
2023/07/17 03:12:30;;;;;;;0.00;0.00;;;;;;;;;;5088767;28;20250;-79
2023/07/17 03:14:56;;;;;;;0.00;0.00;;;;;;;;;;5083428;28;20272;-79
2023/07/17 03:17:23;;;;;;;0.10;0.10;;;;;;;;;;5088616;28;20245;-79
2023/07/17 03:19:50;;;;;;;0.05;0.05;;;;;;;;;;5083316;28;20269;-79
2023/07/17 03:22:17;;;;;;;0.20;0.20;;;;;;;;;;5088520;28;20252;-79
2023/07/17 03:24:45;;;;;;;0.00;0.00;;;;;;;;;;5083446;28;20393;-80
2023/07/17 03:27:11;;;;;;;0.03;0.03;;;;;;;;;;5088508;28;20242;-79
2023/07/17 03:29:37;;;;;;;0.00;0.00;;;;;;;;;;5083144;28;20297;-79
2023/07/17 03:32:04;;;;;;;2.05;1.95;;;;;;;;;;5088042;28;20256;-78
2023/07/17 03:34:30;;;;;;;0.00;0.00;;;;;;;;;;5083572;28;20384;-79
2023/07/17 03:36:57;;;;;;;0.00;0.00;;;;;;;;;;5087058;28;20243;-79
2023/07/17 03:39:23;;;;;;;0.00;0.00;;;;;;;;;;5084635;28;20270;-79
2023/07/17 03:41:51;;;;;;;0.00;0.00;;;;;;;;;;5085988;28;20282;-79
2023/07/17 03:44:17;;;;;;;0.00;0.00;;;;;;;;;;5085471;28;20278;-78
2023/07/17 03:46:44;;;;;;;0.00;0.00;;;;;;;;;;5085146;28;20262;-79
2023/07/17 03:49:10;;;;;;;0.00;0.00;;;;;;;;;;5085649;28;20290;-79
2023/07/17 03:51:36;;;;;;;0.00;0.00;;;;;;;;;;5084332;28;20603;-79
2023/07/17 03:54:03;;;;;;;0.00;0.00;;;;;;;;;;5086980;28;20536;-78
2023/07/17 03:56:29;;;;;;;0.10;0.10;;;;;;;;;;5083103;28;20303;-79
2023/07/17 03:58:57;;;;;;;0.00;0.00;;;;;;;;;;5087569;28;20237;-79
2023/07/17 04:01:23;;;;;;;0.10;0.10;;;;;;;;;;5082024;28;20246;-78
2023/07/17 04:03:50;;;;;;;0.10;0.10;;;;;;;;;;5089850;28;20206;-79
2023/07/17 04:06:16;;;;;;;0.28;0.28;;;;;;;;;;5085007;28;20261;-79
2023/07/17 04:08:42;;;;;;;0.10;0.10;;;;;;;;;;5092914;28;20229;-79
2023/07/17 04:11:09;;;;;;;0.30;0.30;;;;;;;;;;5084096;28;20262;-79
2023/07/17 04:13:35;;;;;;;0.10;0.10;;;;;;;;;;5093826;28;20210;-79
2023/07/17 04:16:03;;;;;;;0.08;0.08;;;;;;;;;;5083146;28;20275;-78
2023/07/17 04:18:30;;;;;;;0.00;0.00;;;;;;;;;;5094779;28;20272;-79
2023/07/17 04:20:56;;;;;;;0.00;0.00;;;;;;;;;;5082252;28;20261;-79
2023/07/17 04:23:22;;;;;;;0.00;0.00;;;;;;;;;;5095227;28;20213;-79
2023/07/17 04:25:50;;;;;;;0.10;0.10;;;;;;;;;;5081209;28;20495;-79
2023/07/17 04:28:16;;;;;;;0.08;0.08;;;;;;;;;;5096285;28;20204;-79
2023/07/17 04:30:43;;;;;;;0.00;0.00;;;;;;;;;;5080262;28;20245;-80
2023/07/17 04:33:10;;;;;;;0.00;0.00;;;;;;;;;;5096890;28;20223;-78
2023/07/17 04:35:37;;;;;;;0.00;0.00;;;;;;;;;;5079667;28;20307;-79
2023/07/17 04:38:04;;;;;;;0.00;0.00;;;;;;;;;;5097874;28;20192;-79
2023/07/17 04:40:30;;;;;;;0.00;0.00;;;;;;;;;;5078576;28;20247;-79
2023/07/17 04:42:58;;;;;;;0.10;0.10;;;;;;;;;;5098470;28;20264;-79
2023/07/17 04:45:25;;;;;;;0.05;0.05;;;;;;;;;;5077913;28;20271;-79
2023/07/17 04:47:51;;;;;;;0.00;0.00;;;;;;;;;;5099220;28;20193;-79
2023/07/17 04:50:19;;;;;;;0.10;0.10;;;;;;;;;;5076713;28;20238;-78
2023/07/17 04:52:45;;;;;;;0.10;0.10;;;;;;;;;;5099898;28;20391;-79
2023/07/17 04:55:11;;;;;;;0.10;0.10;;;;;;;;;;5076006;28;20212;-78
2023/07/17 04:57:38;;;;;;;0.10;0.10;;;;;;;;;;5100686;28;20351;-79
2023/07/17 05:00:08;;;;;;;0.05;0.05;;;;;;;;;;5085666;28;20539;-79
2023/07/17 05:02:35;;;;;;;0.10;0.10;;;;;;;;;;5073933;28;20211;-78
2023/07/17 05:05:01;;;;;;;0.08;0.08;;;;;;;;;;5085342;28;20200;-79
2023/07/17 05:07:29;;;;;;;0.10;0.10;;;;;;;;;;5090598;28;20313;-79
2023/07/17 05:09:55;;;;;;;0.03;0.03;;;;;;;;;;5085440;28;20488;-79
2023/07/17 05:12:22;;;;;;;0.10;0.10;;;;;;;;;;5090455;28;20487;-79
2023/07/17 05:14:48;;;;;;;0.03;0.03;;;;;;;;;;5085247;28;20204;-79
2023/07/17 05:17:15;;;;;;;0.03;0.03;;;;;;;;;;5090388;28;20312;-77
2023/07/17 05:19:41;;;;;;;0.00;0.00;;;;;;;;;;5084960;28;20242;-79
2023/07/17 05:22:07;;;;;;;0.00;0.00;;;;;;;;;;5090291;28;20367;-79
2023/07/17 05:24:35;;;;;;;0.00;0.00;;;;;;;;;;5084962;28;20208;-78
2023/07/17 05:27:01;;;;;;;0.00;0.00;;;;;;;;;;5089509;28;20245;-79
2023/07/17 05:29:28;;;;;;;0.00;0.00;;;;;;;;;;5085537;28;20296;-79
2023/07/17 05:31:54;;;;;;;0.10;0.10;;;;;;;;;;5088262;28;20243;-79
2023/07/17 05:34:21;;;;;;;0.00;0.00;;;;;;;;;;5086349;28;20203;-79
2023/07/17 05:36:47;;;;;;;0.10;0.10;;;;;;;;;;5087373;28;20491;-79
2023/07/17 05:39:13;;;;;;;0.10;0.10;;;;;;;;;;5087306;28;20201;-79
2023/07/17 05:41:41;;;;;;;1.17;1.08;;;;;;;;;;5086184;28;20247;-79
2023/07/17 05:44:07;;;;;;;0.00;0.00;;;;;;;;;;5088127;28;20445;-79
2023/07/17 05:46:34;;;;;;;0.10;0.10;;;;;;;;;;5085336;28;20239;-78
2023/07/17 05:49:00;;;;;;;0.10;0.10;;;;;;;;;;5088773;28;20455;-78
2023/07/17 05:51:26;;;;;;;0.00;0.00;;;;;;;;;;5084522;28;20505;-77
2023/07/17 05:53:53;;;;;;;0.00;0.00;;;;;;;;;;5089951;28;20394;-78
2023/07/17 05:56:19;;;;;;;0.00;0.00;;;;;;;;;;5083468;28;20248;-79
2023/07/17 05:58:47;;;;;;;0.10;0.10;;;;;;;;;;5090820;28;20241;-79
2023/07/17 06:01:13;;;;;;;0.00;0.00;;;;;;;;;;5082251;28;20240;-78
2023/07/17 06:03:40;;;;;;;0.00;0.00;;;;;;;;;;5092064;28;20212;-79
2023/07/17 06:06:06;;;;;;;0.00;0.00;;;;;;;;;;5081722;28;20249;-78
2023/07/17 06:08:33;;;;;;;0.00;0.00;;;;;;;;;;5092061;28;20244;-79
2023/07/17 06:10:59;;;;;;;0.00;0.00;;;;;;;;;;5080093;28;20265;-78
2023/07/17 06:13:25;;;;;;;0.00;0.00;;;;;;;;;;5093200;28;20532;-77
2023/07/17 06:15:53;;;;;;;0.10;0.10;;;;;;;;;;5079798;28;20511;-78
2023/07/17 06:18:19;;;;;;;0.00;0.00;;;;;;;;;;5094210;28;20234;-82
2023/07/17 06:20:46;;;;;;;0.00;0.00;;;;;;;;;;5079042;28;20250;-82
2023/07/17 06:23:12;;;;;;;0.00;0.00;;;;;;;;;;5094566;28;20195;-76
2023/07/17 06:25:39;;;;;;;0.32;0.32;;;;;;;;;;5077837;28;20296;-79
2023/07/17 06:28:05;;;;;;;0.00;0.00;;;;;;;;;;5095333;28;20217;-80
2023/07/17 06:30:31;;;;;;;0.00;0.00;;;;;;;;;;5076560;28;20300;-80
2023/07/17 06:32:59;;;;;;;0.00;0.00;;;;;;;;;;5096352;28;20266;-80
2023/07/17 06:35:25;;;;;;;0.00;0.00;;;;;;;;;;5076118;28;20245;-79
2023/07/17 06:37:52;;;;;;;0.00;0.00;;;;;;;;;;5097017;28;20225;-79
2023/07/17 06:40:18;;;;;;;0.00;0.00;;;;;;;;;;5074592;28;20209;-78
2023/07/17 06:42:45;;;;;;;0.00;0.00;;;;;;;;;;5098193;28;20429;-79
2023/07/17 06:45:11;;;;;;;0.00;0.00;;;;;;;;;;5074059;28;20241;-78
2023/07/17 06:47:37;;;;;;;0.10;0.10;;;;;;;;;;5098988;28;20429;-79
2023/07/17 06:50:06;;;;;;;0.00;0.00;;;;;;;;;;5083841;28;20441;-79
2023/07/17 06:52:32;;;;;;;0.00;0.00;;;;;;;;;;5072249;28;20485;-79
2023/07/17 06:54:58;;;;;;;1.45;1.45;;;;;;;;;;5083545;28;20206;-79
2023/07/17 06:57:25;;;;;;;0.10;0.10;;;;;;;;;;5088860;28;20261;-79
2023/07/17 06:59:51;;;;;;;0.75;0.75;;;;;;;;;;5083459;28;20203;-78
2023/07/17 07:02:18;;;;;;;0.00;0.00;;;;;;;;;;5088945;28;20239;-79
2023/07/17 07:04:44;;;;;;;0.00;0.00;;;;;;;;;;5083497;28;20274;-79
2023/07/17 07:07:12;;;;;;;0.00;0.00;;;;;;;;;;5088785;28;20393;-79
2023/07/17 07:09:38;;;;;;;0.00;0.00;;;;;;;;;;5083427;28;20235;-79
2023/07/17 07:12:05;;;;;;;0.10;0.10;;;;;;;;;;5088236;28;20241;-79
2023/07/17 07:14:31;;;;;;;0.00;0.00;;;;;;;;;;5084064;28;20218;-81
2023/07/17 07:16:57;;;;;;;0.00;0.00;;;;;;;;;;5087415;28;20253;-82
2023/07/17 07:19:24;;;;;;;0.08;0.08;;;;;;;;;;5084703;28;20397;-81
2023/07/17 07:21:51;;;;;;;0.20;0.20;;;;;;;;;;5086380;28;20352;-82
2023/07/17 07:24:18;;;;;;;0.00;0.00;;;;;;;;;;5085343;28;20196;-82
2023/07/17 07:26:45;;;;;;;0.00;0.00;;;;;;;;;;5085892;28;20238;-81
2023/07/17 07:29:11;;;;;;;0.00;0.00;;;;;;;;;;5086331;28;20214;-80
2023/07/17 07:31:38;;;;;;;0.20;0.20;;;;;;;;;;5084648;28;20581;-80
2023/07/17 07:34:04;;;;;;;0.10;0.10;;;;;;;;;;5087279;28;20230;-79
2023/07/17 07:36:30;;;;;;;0.10;0.10;;;;;;;;;;5083832;28;20239;-80
2023/07/17 07:38:57;;;;;;;0.55;0.55;;;;;;;;;;5089691;28;20278;-80
2023/07/17 07:41:24;;;;;;;0.00;0.00;;;;;;;;;;5086665;28;20310;-79
2023/07/17 07:43:51;;;;;;;0.00;0.00;;;;;;;;;;5092802;28;20279;-79
2023/07/17 07:46:17;;;;;;;0.00;0.00;;;;;;;;;;5086000;28;20515;-79
2023/07/17 07:48:43;;;;;;;0.00;0.00;;;;;;;;;;5093651;28;20215;-80
2023/07/17 07:51:10;;;;;;;0.10;0.10;;;;;;;;;;5084691;28;20254;-79
2023/07/17 07:53:36;;;;;;;0.00;0.00;;;;;;;;;;5094638;28;20235;-79
2023/07/17 07:56:03;;;;;;;0.00;0.00;;;;;;;;;;5083702;28;20251;-79
2023/07/17 07:58:30;;;;;;;0.00;0.00;;;;;;;;;;5095063;28;20267;-79
2023/07/17 08:00:57;;;;;;;0.03;0.03;;;;;;;;;;5082515;28;20498;-78
2023/07/17 08:03:30;;;;;;;12.30;11.40;;;;;;;;;;5096006;28;20213;-77
2023/07/17 08:05:58;;;;;;;0.45;0.45;;;;;;;;;;5083508;28;20577;-78
2023/07/17 08:08:24;;;;;;;0.10;0.10;;;;;;;;;;5095746;28;20203;-78
2023/07/17 08:10:52;;;;;;;0.00;0.00;;;;;;;;;;5081969;28;20269;-78
2023/07/17 08:13:18;;;;;;;0.15;0.15;;;;;;;;;;5096531;28;20235;-78
2023/07/17 08:15:46;;;;;;;0.10;0.10;;;;;;;;;;5081009;28;20249;-79
2023/07/17 08:18:15;;;;;;;0.00;0.00;;;;;;;;;;5097189;28;20392;-78
2023/07/17 08:20:41;;;;;;;0.00;0.00;;;;;;;;;;5080487;28;20309;-78
2023/07/17 08:23:07;;;;;;;0.00;0.00;;;;;;;;;;5097517;28;20192;-79
2023/07/17 08:25:34;;;;;;;0.08;0.08;;;;;;;;;;5079448;28;20301;-79
2023/07/17 08:28:00;;;;;;;0.10;0.10;;;;;;;;;;5098561;28;20270;-79
2023/07/17 08:30:28;;;;;;;0.10;0.10;;;;;;;;;;5078560;28;20251;-80
2023/07/17 08:32:56;;;;;;;0.00;0.00;;;;;;;;;;5098983;28;20191;-78
2023/07/17 08:35:23;;;;;;;0.00;0.00;;;;;;;;;;5077932;28;20207;-78
2023/07/17 08:37:49;;;;;;;0.00;0.00;;;;;;;;;;5099407;28;20227;-79
2023/07/17 08:40:16;;;;;;;0.00;0.00;;;;;;;;;;5076737;28;20204;-78
2023/07/17 08:42:44;;;;;;;0.03;0.03;;;;;;;;;;5100331;28;20246;-79
2023/07/17 08:45:12;;;;;;;0.00;0.00;;;;;;;;;;5076096;28;20276;-78
2023/07/17 08:47:38;;;;;;;0.00;0.00;;;;;;;;;;5101049;28;20448;-79
2023/07/17 08:50:07;;;;;;;0.00;0.00;;;;;;;;;;5085288;28;20282;-80
2023/07/17 08:52:33;;;;;;;0.15;0.15;;;;;;;;;;5074106;28;20212;-79
2023/07/17 08:55:00;;;;;;;0.30;0.30;;;;;;;;;;5085654;28;20203;-79
2023/07/17 08:57:27;;;;;;;0.00;0.00;;;;;;;;;;5090933;28;20530;-81
2023/07/17 08:59:54;;;;;;;0.00;0.00;;;;;;;;;;5085473;28;20241;-79
2023/07/17 09:02:21;;;;;;;0.10;0.10;;;;;;;;;;5090871;28;20336;-79
2023/07/17 09:04:47;;;;;;;0.10;0.10;;;;;;;;;;5085211;28;20278;-79
2023/07/17 09:07:15;;;;;;;1.88;0.30;;;;;;;;;;5090689;28;20268;-79
2023/07/17 09:09:41;;;;;;;0.00;0.00;;;;;;;;;;5085556;28;20245;-81
2023/07/17 09:12:08;;;;;;;0.10;0.10;;;;;;;;;;5090503;28;20254;-81
2023/07/17 09:14:35;;;;;;;0.00;0.00;;;;;;;;;;5085131;28;20207;-74
2023/07/17 09:17:02;;;;;;;0.00;0.00;;;;;;;;;;5089651;28;20306;-74
2023/07/17 09:19:29;;;;;;;0.00;0.00;;;;;;;;;;5085842;28;20235;-74
2023/07/17 09:21:58;;;;;;;0.57;0.57;;;;;;;;;;5088513;28;20302;-75
2023/07/17 09:24:27;;;;;;;0.03;0.03;;;;;;;;;;5086060;28;20282;-74
2023/07/17 09:26:55;;;;;;;0.03;0.03;;;;;;;;;;5088440;28;20416;-74
2023/07/17 09:29:22;;;;;;;0.00;0.00;;;;;;;;;;5086556;28;20403;-75
2023/07/17 09:31:49;;;;;;;0.10;0.10;;;;;;;;;;5087457;28;20250;-74
2023/07/17 09:34:15;;;;;;;0.22;0.22;;;;;;;;;;5087290;28;20449;-74
2023/07/17 09:36:41;;;;;;;0.10;0.10;;;;;;;;;;5086598;28;20238;-74
2023/07/17 09:39:08;;;;;;;0.08;0.08;;;;;;;;;;5088177;28;20242;-74
2023/07/17 09:41:35;;;;;;;0.00;0.00;;;;;;;;;;5085560;28;20261;-73
2023/07/17 09:44:03;;;;;;;0.00;0.00;;;;;;;;;;5088647;28;20242;-73
2023/07/17 09:46:30;;;;;;;0.10;0.10;;;;;;;;;;5084859;28;20287;-74
2023/07/17 09:48:57;;;;;;;0.10;0.10;;;;;;;;;;5089377;28;20204;-74
2023/07/17 09:51:23;;;;;;;0.00;0.00;;;;;;;;;;5083915;28;20326;-74
2023/07/17 09:53:50;;;;;;;0.00;0.00;;;;;;;;;;5090309;28;20276;-74
2023/07/17 09:56:18;;;;;;;0.00;0.00;;;;;;;;;;5082794;28;20257;-74
2023/07/17 09:58:47;;;;;;;0.00;0.00;;;;;;;;;;5090915;28;20210;-74
2023/07/17 10:01:15;;;;;;;0.20;0.20;;;;;;;;;;5081810;28;20235;-74
2023/07/17 10:03:44;;;;;;;0.00;0.00;;;;;;;;;;5091227;28;20203;-74
2023/07/17 10:06:11;;;;;;;0.00;0.00;;;;;;;;;;5082149;28;20265;-74
2023/07/17 10:08:38;;;;;;;0.00;0.00;;;;;;;;;;5091651;28;20270;-74
2023/07/17 10:11:05;;;;;;;0.10;0.10;;;;;;;;;;5081136;28;20241;-75
2023/07/17 10:13:31;;;;;;;0.00;0.00;;;;;;;;;;5092513;28;20242;-74
2023/07/17 10:15:59;;;;;;;0.00;0.00;;;;;;;;;;5080346;28;20246;-75
2023/07/17 10:18:25;;;;;;;0.00;0.00;;;;;;;;;;5093160;28;20235;-74
2023/07/17 10:20:52;;;;;;;0.00;0.00;;;;;;;;;;5079584;28;20298;-75
2023/07/17 10:23:24;;;;;;;0.00;0.00;;;;;;;;;;5093680;28;20203;-76
2023/07/17 10:25:50;;;;;;;0.00;0.00;;;;;;;;;;5079390;28;20239;-76
2023/07/17 10:28:29;;;;;;;0.00;0.00;;;;;;;;;;5093758;28;20278;-75
2023/07/17 10:30:55;;;;;;;0.00;0.00;;;;;;;;;;5079805;28;20305;-70
2023/07/17 10:33:23;;;;;;;0.00;0.00;;;;;;;;;;5093275;28;20270;-74
2023/07/17 10:35:50;;;;;;;0.10;0.10;;;;;;;;;;5078676;28;20254;-75
2023/07/17 10:38:17;;;;;;;0.10;0.10;;;;;;;;;;5093744;28;20203;-73
2023/07/17 10:40:44;;;;;;;0.00;0.00;;;;;;;;;;5078320;28;20297;-73
2023/07/17 10:43:11;;;;;;;0.08;0.08;;;;;;;;;;5094586;28;20267;-72
2023/07/17 10:45:37;;;;;;;0.00;0.00;;;;;;;;;;5077022;28;20239;-72
2023/07/17 10:48:05;;;;;;;0.00;0.00;;;;;;;;;;5095304;28;20299;-73
2023/07/17 10:50:33;;;;;;;0.00;0.00;;;;;;;;;;5076478;28;20244;-72
2023/07/17 10:53:02;;;;;;;0.00;0.00;;;;;;;;;;5096346;28;20241;-73
2023/07/17 10:55:29;;;;;;;0.00;0.00;;;;;;;;;;5076175;28;20250;-72
2023/07/17 10:57:56;;;;;;;0.00;0.00;;;;;;;;;;5096521;28;20259;-72
2023/07/17 11:00:22;;;;;;;0.03;0.03;;;;;;;;;;5075180;28;20250;-72
2023/07/17 11:02:49;;;;;;;0.00;0.00;;;;;;;;;;5097364;28;20496;-70
2023/07/17 11:05:15;;;;;;;0.10;0.10;;;;;;;;;;5074102;28;20275;-73
2023/07/17 11:07:43;;;;;;;0.00;0.00;;;;;;;;;;5098460;28;20199;-72
2023/07/17 11:10:11;;;;;;;0.00;0.00;;;;;;;;;;5073572;28;20215;-73
2023/07/17 11:12:37;;;;;;;0.00;0.00;;;;;;;;;;5099843;28;20390;-72
2023/07/17 11:15:05;;;;;;;0.00;0.00;;;;;;;;;;5087550;28;20278;-73
2023/07/17 11:17:32;;;;;;;0.00;0.00;;;;;;;;;;5092957;28;20418;-73
2023/07/17 11:20:03;;;;;;;0.00;0.00;;;;;;;;;;5087536;28;20275;-72
2023/07/17 11:22:33;;;;;;;0.00;0.00;;;;;;;;;;5093018;28;20246;-74
2023/07/17 11:25:00;;;;;;;0.00;0.00;;;;;;;;;;5087424;28;20210;-74
2023/07/17 11:27:27;;;;;;;0.00;0.00;;;;;;;;;;5093038;28;20292;-74
2023/07/17 11:29:53;;;;;;;0.13;0.13;;;;;;;;;;5087293;28;20204;-72
2023/07/17 11:32:20;;;;;;;0.10;0.10;;;;;;;;;;5092537;28;20254;-72
2023/07/17 11:34:47;;;;;;;0.00;0.00;;;;;;;;;;5087347;28;20378;-71
2023/07/17 11:37:28;;;;;;;0.65;0.65;;;;;;;;;;5092441;28;20256;-72
2023/07/17 11:39:54;;;;;;;0.00;0.00;;;;;;;;;;5087327;28;20274;-72
2023/07/17 11:42:22;;;;;;;0.00;0.00;;;;;;;;;;5092146;28;20558;-72
2023/07/17 11:44:57;;;;;;;0.00;0.00;;;;;;;;;;5087067;28;20278;-72
2023/07/17 11:47:25;;;;;;;0.00;0.00;;;;;;;;;;5092240;28;20309;-72
2023/07/17 11:49:53;;;;;;;0.00;0.00;;;;;;;;;;5086567;28;20210;-72
2023/07/17 11:52:20;;;;;;;0.00;0.00;;;;;;;;;;5092136;28;20297;-72
2023/07/17 11:54:46;;;;;;;0.00;0.00;;;;;;;;;;5086923;28;20514;-71
2023/07/17 11:57:13;;;;;;;0.00;0.00;;;;;;;;;;5092162;28;20305;-72
2023/07/17 11:59:44;;;;;;;0.00;0.00;;;;;;;;;;5086667;28;20238;-72
2023/07/17 12:02:11;;;;;;;0.00;0.00;;;;;;;;;;5092042;28;20447;-72
2023/07/17 12:04:40;;;;;;;0.00;0.00;;;;;;;;;;5086692;28;20212;-73
2023/07/17 12:07:06;;;;;;;0.00;0.00;;;;;;;;;;5091671;28;20246;-73
2023/07/17 12:09:33;;;;;;;0.00;0.00;;;;;;;;;;5086632;28;20204;-73
2023/07/17 12:11:59;;;;;;;0.00;0.00;;;;;;;;;;5090895;28;20246;-72
2023/07/17 12:14:26;;;;;;;0.00;0.00;;;;;;;;;;5087373;28;20208;-73
2023/07/17 12:16:53;;;;;;;0.00;0.00;;;;;;;;;;5089572;28;20243;-73
2023/07/17 12:19:20;;;;;;;0.00;0.00;;;;;;;;;;5088236;28;20214;-73
2023/07/17 12:21:48;;;;;;;0.00;0.00;;;;;;;;;;5088666;28;20297;-72
2023/07/17 12:24:14;;;;;;;0.00;0.00;;;;;;;;;;5087986;28;20395;-73
2023/07/17 12:26:41;;;;;;;0.00;0.00;;;;;;;;;;5088161;28;20578;-73
2023/07/17 12:29:07;;;;;;;0.00;0.00;;;;;;;;;;5089548;28;20465;-72
2023/07/17 12:31:33;;;;;;;0.00;0.00;;;;;;;;;;5086971;28;20301;-73
2023/07/17 12:34:01;;;;;;;0.75;0.75;;;;;;;;;;5090089;28;20279;-73
2023/07/17 12:36:28;;;;;;;0.90;0.30;;;;;;;;;;5085984;28;20303;-72
2023/07/17 12:39:10;;;;;;;0.10;0.10;;;;;;;;;;5091079;28;20403;-73
2023/07/17 12:41:37;;;;;;;0.10;0.10;;;;;;;;;;5087189;28;20534;-73
2023/07/17 12:44:04;;;;;;;0.00;0.00;;;;;;;;;;5089501;28;20210;-72
2023/07/17 12:46:30;;;;;;;0.00;0.00;;;;;;;;;;5086322;28;20461;-72
2023/07/17 12:48:56;;;;;;;0.00;0.00;;;;;;;;;;5090610;28;20203;-73
2023/07/17 12:51:24;;;;;;;0.00;0.00;;;;;;;;;;5085176;28;20239;-72
2023/07/17 12:53:51;;;;;;;0.00;0.00;;;;;;;;;;5091115;28;20235;-72
2023/07/17 12:56:18;;;;;;;0.00;0.00;;;;;;;;;;5084272;28;20491;-72
2023/07/17 12:58:44;;;;;;;3.72;1.55;;;;;;;;;;5092043;28;20507;-73
2023/07/17 13:01:11;;;;;;;0.00;0.00;;;;;;;;;;5083339;28;20297;-73
2023/07/17 13:03:38;;;;;;;0.10;0.10;;;;;;;;;;5092751;28;20203;-73
2023/07/17 13:06:04;;;;;;;0.00;0.00;;;;;;;;;;5082521;28;20302;-73
2023/07/17 13:08:32;;;;;;;0.00;0.00;;;;;;;;;;5093383;28;20210;-73
2023/07/17 13:10:58;;;;;;;0.00;0.00;;;;;;;;;;5081698;28;20306;-74
2023/07/17 13:13:25;;;;;;;0.00;0.00;;;;;;;;;;5093953;28;20227;-73
2023/07/17 13:15:51;;;;;;;0.00;0.00;;;;;;;;;;5080701;28;20298;-73
2023/07/17 13:18:18;;;;;;;0.00;0.00;;;;;;;;;;5094850;28;20246;-72
2023/07/17 13:20:45;;;;;;;0.00;0.00;;;;;;;;;;5079790;28;20238;-73
2023/07/17 13:23:11;;;;;;;0.00;0.00;;;;;;;;;;5095689;28;20271;-73
2023/07/17 13:25:39;;;;;;;0.00;0.00;;;;;;;;;;5078691;28;20250;-73
2023/07/17 13:28:05;;;;;;;0.00;0.00;;;;;;;;;;5096641;28;20203;-73
2023/07/17 13:30:32;;;;;;;0.00;0.00;;;;;;;;;;5077871;28;20301;-73
2023/07/17 13:32:58;;;;;;;0.00;0.00;;;;;;;;;;5097147;28;20215;-73
2023/07/17 13:35:25;;;;;;;0.00;0.00;;;;;;;;;;5076796;28;20204;-73
2023/07/17 13:37:51;;;;;;;0.00;0.00;;;;;;;;;;5097950;28;20456;-73
2023/07/17 13:40:18;;;;;;;0.00;0.00;;;;;;;;;;5075879;28;20207;-73
2023/07/17 13:42:45;;;;;;;0.00;0.00;;;;;;;;;;5099220;28;20195;-73
2023/07/17 13:45:12;;;;;;;0.00;0.00;;;;;;;;;;5075085;28;20274;-75
2023/07/17 13:47:38;;;;;;;0.00;0.00;;;;;;;;;;5099840;28;20263;-74
2023/07/17 13:50:06;;;;;;;0.00;0.00;;;;;;;;;;5084548;28;20203;-73
2023/07/17 13:52:35;;;;;;;0.00;0.00;;;;;;;;;;5072980;28;20442;-73
2023/07/17 13:55:02;;;;;;;0.00;0.00;;;;;;;;;;5084522;28;20274;-73
2023/07/17 13:57:28;;;;;;;0.00;0.00;;;;;;;;;;5089751;28;20239;-74
2023/07/17 13:59:56;;;;;;;0.00;0.00;;;;;;;;;;5084222;28;20230;-73
2023/07/17 14:02:22;;;;;;;0.00;0.00;;;;;;;;;;5089634;28;20566;-73
2023/07/17 14:04:49;;;;;;;0.00;0.00;;;;;;;;;;5084329;28;20428;-73
2023/07/17 14:07:18;;;;;;;0.20;0.20;;;;;;;;;;5089556;28;20301;-74
2023/07/17 14:09:45;;;;;;;0.00;0.00;;;;;;;;;;5084116;28;20271;-73
2023/07/17 14:12:11;;;;;;;0.00;0.00;;;;;;;;;;5089432;28;20238;-73
2023/07/17 14:14:38;;;;;;;0.00;0.00;;;;;;;;;;5084264;28;20332;-73
2023/07/17 14:17:05;;;;;;;0.10;0.10;;;;;;;;;;5088910;28;20283;-74
2023/07/17 14:19:32;;;;;;;0.00;0.00;;;;;;;;;;5084500;28;20274;-74
2023/07/17 14:21:58;;;;;;;0.00;0.00;;;;;;;;;;5087954;28;20253;-73
2023/07/17 14:24:25;;;;;;;0.00;0.00;;;;;;;;;;5085033;28;20309;-74
2023/07/17 14:26:51;;;;;;;0.00;0.00;;;;;;;;;;5087059;28;20309;-73
2023/07/17 14:29:17;;;;;;;0.00;0.00;;;;;;;;;;5085898;28;20275;-73
2023/07/17 14:31:44;;;;;;;0.00;0.00;;;;;;;;;;5085852;28;20301;-73
2023/07/17 14:34:11;;;;;;;0.00;0.00;;;;;;;;;;5086749;28;20203;-73
2023/07/17 14:36:38;;;;;;;0.00;0.00;;;;;;;;;;5085329;28;20529;-73
2023/07/17 14:39:04;;;;;;;0.00;0.00;;;;;;;;;;5087686;28;20398;-73
2023/07/17 14:41:31;;;;;;;0.00;0.00;;;;;;;;;;5084131;28;20309;-73